sensor_id;sensor_type;location;lat;lon;timestamp;P1;durP1;ratioP1;P2;durP2;ratioP2
45806;SDS011;31507;51.494;7.518;2022-12-18T00:01:00;24.48;;;11.60;;
45806;SDS011;31507;51.494;7.518;2022-12-18T00:03:30;19.92;;;10.05;;
45806;SDS011;31507;51.494;7.518;2022-12-18T00:05:59;24.58;;;11.55;;
45806;SDS011;31507;51.494;7.518;2022-12-18T00:08:25;20.15;;;10.15;;
45806;SDS011;31507;51.494;7.518;2022-12-18T00:10:50;20.50;;;10.63;;
45806;SDS011;31507;51.494;7.518;2022-12-18T00:13:16;22.23;;;12.13;;
45806;SDS011;31507;51.494;7.518;2022-12-18T00:15:41;21.50;;;9.50;;
45806;SDS011;31507;51.494;7.518;2022-12-18T00:18:07;19.27;;;10.80;;
45806;SDS011;31507;51.494;7.518;2022-12-18T00:20:37;24.00;;;10.43;;
45806;SDS011;31507;51.494;7.518;2022-12-18T00:23:04;16.95;;;9.38;;
45806;SDS011;31507;51.494;7.518;2022-12-18T00:25:34;14.27;;;8.13;;
45806;SDS011;31507;51.494;7.518;2022-12-18T00:28:01;16.13;;;9.27;;
45806;SDS011;31507;51.494;7.518;2022-12-18T00:30:27;16.67;;;8.55;;
45806;SDS011;31507;51.494;7.518;2022-12-18T00:32:53;20.52;;;8.82;;
45806;SDS011;31507;51.494;7.518;2022-12-18T00:35:19;13.57;;;9.70;;
45806;SDS011;31507;51.494;7.518;2022-12-18T00:37:45;18.70;;;9.10;;
45806;SDS011;31507;51.494;7.518;2022-12-18T00:40:11;20.60;;;8.73;;
45806;SDS011;31507;51.494;7.518;2022-12-18T00:42:37;20.60;;;9.50;;
45806;SDS011;31507;51.494;7.518;2022-12-18T00:45:27;12.93;;;8.40;;
45806;SDS011;31507;51.494;7.518;2022-12-18T00:47:55;17.75;;;8.45;;
45806;SDS011;31507;51.494;7.518;2022-12-18T00:50:22;15.20;;;8.73;;
45806;SDS011;31507;51.494;7.518;2022-12-18T00:52:49;16.83;;;8.40;;
45806;SDS011;31507;51.494;7.518;2022-12-18T00:55:15;11.73;;;6.57;;
45806;SDS011;31507;51.494;7.518;2022-12-18T00:57:41;15.50;;;8.18;;
45806;SDS011;31507;51.494;7.518;2022-12-18T01:00:08;15.85;;;7.25;;
45806;SDS011;31507;51.494;7.518;2022-12-18T01:02:39;12.25;;;7.18;;
45806;SDS011;31507;51.494;7.518;2022-12-18T01:05:05;10.70;;;7.15;;
45806;SDS011;31507;51.494;7.518;2022-12-18T01:07:31;10.57;;;6.15;;
45806;SDS011;31507;51.494;7.518;2022-12-18T01:09:57;14.35;;;7.50;;
45806;SDS011;31507;51.494;7.518;2022-12-18T01:12:22;10.85;;;6.20;;
45806;SDS011;31507;51.494;7.518;2022-12-18T01:14:48;13.13;;;6.53;;
45806;SDS011;31507;51.494;7.518;2022-12-18T01:17:14;11.82;;;6.25;;
45806;SDS011;31507;51.494;7.518;2022-12-18T01:19:39;13.88;;;6.55;;
45806;SDS011;31507;51.494;7.518;2022-12-18T01:22:05;9.55;;;6.55;;
45806;SDS011;31507;51.494;7.518;2022-12-18T01:24:31;13.60;;;7.43;;
45806;SDS011;31507;51.494;7.518;2022-12-18T01:26:56;14.80;;;6.30;;
45806;SDS011;31507;51.494;7.518;2022-12-18T01:29:23;11.88;;;6.43;;
45806;SDS011;31507;51.494;7.518;2022-12-18T01:31:48;10.45;;;5.95;;
45806;SDS011;31507;51.494;7.518;2022-12-18T01:34:14;10.02;;;5.15;;
45806;SDS011;31507;51.494;7.518;2022-12-18T01:36:39;8.25;;;4.82;;
45806;SDS011;31507;51.494;7.518;2022-12-18T01:39:06;8.35;;;4.72;;
45806;SDS011;31507;51.494;7.518;2022-12-18T01:41:34;9.52;;;5.10;;
45806;SDS011;31507;51.494;7.518;2022-12-18T01:50:50;9.32;;;5.13;;
45806;SDS011;31507;51.494;7.518;2022-12-18T01:55:29;10.63;;;5.28;;
45806;SDS011;31507;51.494;7.518;2022-12-18T01:57:59;13.40;;;5.20;;
45806;SDS011;31507;51.494;7.518;2022-12-18T02:00:25;7.63;;;4.43;;
45806;SDS011;31507;51.494;7.518;2022-12-18T02:02:52;8.90;;;4.63;;
45806;SDS011;31507;51.494;7.518;2022-12-18T02:05:22;7.15;;;4.40;;
45806;SDS011;31507;51.494;7.518;2022-12-18T02:10:56;6.38;;;4.10;;
45806;SDS011;31507;51.494;7.518;2022-12-18T02:18:57;7.32;;;4.50;;
45806;SDS011;31507;51.494;7.518;2022-12-18T02:26:53;6.93;;;4.47;;
45806;SDS011;31507;51.494;7.518;2022-12-18T02:29:24;7.43;;;4.43;;
45806;SDS011;31507;51.494;7.518;2022-12-18T02:31:53;11.88;;;4.72;;
45806;SDS011;31507;51.494;7.518;2022-12-18T02:34:26;7.00;;;4.47;;
45806;SDS011;31507;51.494;7.518;2022-12-18T02:36:55;8.85;;;4.80;;
45806;SDS011;31507;51.494;7.518;2022-12-18T02:39:23;9.70;;;4.63;;
45806;SDS011;31507;51.494;7.518;2022-12-18T02:41:51;7.97;;;4.60;;
45806;SDS011;31507;51.494;7.518;2022-12-18T02:44:17;7.85;;;4.55;;
45806;SDS011;31507;51.494;7.518;2022-12-18T02:46:48;7.75;;;4.40;;
45806;SDS011;31507;51.494;7.518;2022-12-18T02:54:52;6.40;;;4.22;;
45806;SDS011;31507;51.494;7.518;2022-12-18T03:00:06;8.52;;;4.45;;
45806;SDS011;31507;51.494;7.518;2022-12-18T03:05:30;8.40;;;4.28;;
45806;SDS011;31507;51.494;7.518;2022-12-18T03:11:04;6.22;;;3.55;;
45806;SDS011;31507;51.494;7.518;2022-12-18T03:13:36;6.32;;;3.92;;
45806;SDS011;31507;51.494;7.518;2022-12-18T03:16:17;6.30;;;4.13;;
45806;SDS011;31507;51.494;7.518;2022-12-18T03:18:52;8.65;;;4.57;;
45806;SDS011;31507;51.494;7.518;2022-12-18T03:21:23;8.02;;;4.20;;
45806;SDS011;31507;51.494;7.518;2022-12-18T03:23:53;7.50;;;4.10;;
45806;SDS011;31507;51.494;7.518;2022-12-18T03:26:21;7.30;;;4.20;;
45806;SDS011;31507;51.494;7.518;2022-12-18T03:28:51;6.45;;;3.88;;
45806;SDS011;31507;51.494;7.518;2022-12-18T03:31:20;6.13;;;3.75;;
45806;SDS011;31507;51.494;7.518;2022-12-18T03:33:53;6.47;;;3.75;;
45806;SDS011;31507;51.494;7.518;2022-12-18T03:36:20;5.65;;;3.63;;
45806;SDS011;31507;51.494;7.518;2022-12-18T03:38:47;7.07;;;4.07;;
45806;SDS011;31507;51.494;7.518;2022-12-18T03:41:32;9.77;;;3.85;;
45806;SDS011;31507;51.494;7.518;2022-12-18T03:46:55;7.05;;;3.60;;
45806;SDS011;31507;51.494;7.518;2022-12-18T03:52:09;6.80;;;3.88;;
45806;SDS011;31507;51.494;7.518;2022-12-18T03:54:49;6.72;;;3.63;;
45806;SDS011;31507;51.494;7.518;2022-12-18T03:57:22;6.15;;;3.90;;
45806;SDS011;31507;51.494;7.518;2022-12-18T03:59:54;9.65;;;3.47;;
45806;SDS011;31507;51.494;7.518;2022-12-18T04:02:24;5.47;;;3.60;;
45806;SDS011;31507;51.494;7.518;2022-12-18T04:04:53;8.18;;;3.50;;
45806;SDS011;31507;51.494;7.518;2022-12-18T04:07:23;6.85;;;3.65;;
45806;SDS011;31507;51.494;7.518;2022-12-18T04:09:50;5.82;;;3.30;;
45806;SDS011;31507;51.494;7.518;2022-12-18T04:12:19;7.13;;;4.15;;
45806;SDS011;31507;51.494;7.518;2022-12-18T04:14:45;4.55;;;3.28;;
45806;SDS011;31507;51.494;7.518;2022-12-18T04:17:10;7.30;;;3.70;;
45806;SDS011;31507;51.494;7.518;2022-12-18T04:19:36;5.70;;;3.53;;
45806;SDS011;31507;51.494;7.518;2022-12-18T04:22:02;6.60;;;3.58;;
45806;SDS011;31507;51.494;7.518;2022-12-18T04:24:27;4.57;;;3.00;;
45806;SDS011;31507;51.494;7.518;2022-12-18T04:26:53;4.82;;;3.20;;
45806;SDS011;31507;51.494;7.518;2022-12-18T04:29:19;9.07;;;3.10;;
45806;SDS011;31507;51.494;7.518;2022-12-18T04:31:44;5.53;;;3.35;;
45806;SDS011;31507;51.494;7.518;2022-12-18T04:34:10;4.85;;;3.17;;
45806;SDS011;31507;51.494;7.518;2022-12-18T04:36:36;3.83;;;2.75;;
45806;SDS011;31507;51.494;7.518;2022-12-18T04:39:02;5.32;;;3.00;;
45806;SDS011;31507;51.494;7.518;2022-12-18T04:41:27;5.72;;;3.00;;
45806;SDS011;31507;51.494;7.518;2022-12-18T04:43:53;5.65;;;3.33;;
45806;SDS011;31507;51.494;7.518;2022-12-18T04:46:18;7.35;;;3.40;;
45806;SDS011;31507;51.494;7.518;2022-12-18T04:48:45;7.30;;;3.42;;
45806;SDS011;31507;51.494;7.518;2022-12-18T04:51:11;5.53;;;3.50;;
45806;SDS011;31507;51.494;7.518;2022-12-18T04:53:37;6.22;;;3.30;;
45806;SDS011;31507;51.494;7.518;2022-12-18T04:58:29;6.70;;;3.10;;
45806;SDS011;31507;51.494;7.518;2022-12-18T05:00:55;6.45;;;3.20;;
45806;SDS011;31507;51.494;7.518;2022-12-18T05:03:21;4.53;;;3.50;;
45806;SDS011;31507;51.494;7.518;2022-12-18T05:05:49;5.38;;;3.30;;
45806;SDS011;31507;51.494;7.518;2022-12-18T05:08:15;4.53;;;3.22;;
45806;SDS011;31507;51.494;7.518;2022-12-18T05:10:41;4.97;;;3.08;;
45806;SDS011;31507;51.494;7.518;2022-12-18T05:13:07;7.63;;;3.45;;
45806;SDS011;31507;51.494;7.518;2022-12-18T05:15:32;7.28;;;3.40;;
45806;SDS011;31507;51.494;7.518;2022-12-18T05:17:59;4.35;;;3.05;;
45806;SDS011;31507;51.494;7.518;2022-12-18T05:20:27;5.95;;;3.47;;
45806;SDS011;31507;51.494;7.518;2022-12-18T05:22:53;5.97;;;3.55;;
45806;SDS011;31507;51.494;7.518;2022-12-18T05:25:19;4.45;;;3.33;;
45806;SDS011;31507;51.494;7.518;2022-12-18T05:27:46;7.80;;;3.40;;
45806;SDS011;31507;51.494;7.518;2022-12-18T05:30:12;4.15;;;2.72;;
45806;SDS011;31507;51.494;7.518;2022-12-18T05:32:38;5.57;;;3.30;;
45806;SDS011;31507;51.494;7.518;2022-12-18T05:35:05;4.95;;;3.22;;
45806;SDS011;31507;51.494;7.518;2022-12-18T05:37:32;5.80;;;2.78;;
45806;SDS011;31507;51.494;7.518;2022-12-18T05:39:58;6.55;;;3.53;;
45806;SDS011;31507;51.494;7.518;2022-12-18T05:42:24;6.55;;;3.58;;
45806;SDS011;31507;51.494;7.518;2022-12-18T05:44:49;13.63;;;7.22;;
45806;SDS011;31507;51.494;7.518;2022-12-18T05:47:15;7.53;;;4.70;;
45806;SDS011;31507;51.494;7.518;2022-12-18T05:49:41;10.32;;;6.07;;
45806;SDS011;31507;51.494;7.518;2022-12-18T05:52:06;5.40;;;4.03;;
45806;SDS011;31507;51.494;7.518;2022-12-18T05:54:32;7.90;;;4.18;;
45806;SDS011;31507;51.494;7.518;2022-12-18T05:56:58;7.90;;;4.57;;
45806;SDS011;31507;51.494;7.518;2022-12-18T05:59:23;7.80;;;4.38;;
45806;SDS011;31507;51.494;7.518;2022-12-18T06:01:49;5.75;;;3.95;;
45806;SDS011;31507;51.494;7.518;2022-12-18T06:04:14;7.00;;;3.83;;
45806;SDS011;31507;51.494;7.518;2022-12-18T06:06:40;35.35;;;10.45;;
45806;SDS011;31507;51.494;7.518;2022-12-18T06:09:06;13.20;;;5.43;;
45806;SDS011;31507;51.494;7.518;2022-12-18T06:11:34;11.82;;;4.78;;
45806;SDS011;31507;51.494;7.518;2022-12-18T06:14:01;27.55;;;8.57;;
45806;SDS011;31507;51.494;7.518;2022-12-18T06:16:28;14.55;;;5.95;;
45806;SDS011;31507;51.494;7.518;2022-12-18T06:19:00;12.48;;;5.63;;
45806;SDS011;31507;51.494;7.518;2022-12-18T06:23:54;6.78;;;4.30;;
45806;SDS011;31507;51.494;7.518;2022-12-18T06:26:20;8.35;;;3.88;;
45806;SDS011;31507;51.494;7.518;2022-12-18T06:28:45;5.95;;;3.22;;
45806;SDS011;31507;51.494;7.518;2022-12-18T06:31:11;8.73;;;3.60;;
45806;SDS011;31507;51.494;7.518;2022-12-18T06:33:37;3.45;;;2.55;;
45806;SDS011;31507;51.494;7.518;2022-12-18T06:36:07;5.03;;;2.92;;
45806;SDS011;31507;51.494;7.518;2022-12-18T06:38:35;6.50;;;3.00;;
45806;SDS011;31507;51.494;7.518;2022-12-18T06:43:36;4.50;;;3.13;;
45806;SDS011;31507;51.494;7.518;2022-12-18T06:46:03;11.45;;;5.50;;
45806;SDS011;31507;51.494;7.518;2022-12-18T06:48:29;7.07;;;4.38;;
45806;SDS011;31507;51.494;7.518;2022-12-18T06:50:55;12.18;;;7.10;;
45806;SDS011;31507;51.494;7.518;2022-12-18T06:53:21;7.03;;;4.00;;
45806;SDS011;31507;51.494;7.518;2022-12-18T06:55:47;6.90;;;3.83;;
45806;SDS011;31507;51.494;7.518;2022-12-18T06:58:12;5.35;;;3.33;;
45806;SDS011;31507;51.494;7.518;2022-12-18T07:00:38;5.40;;;2.92;;
45806;SDS011;31507;51.494;7.518;2022-12-18T07:03:04;7.28;;;3.80;;
45806;SDS011;31507;51.494;7.518;2022-12-18T07:05:29;5.70;;;3.75;;
45806;SDS011;31507;51.494;7.518;2022-12-18T07:07:55;6.82;;;3.15;;
45806;SDS011;31507;51.494;7.518;2022-12-18T07:10:20;4.97;;;3.03;;
45806;SDS011;31507;51.494;7.518;2022-12-18T07:12:46;6.18;;;3.40;;
45806;SDS011;31507;51.494;7.518;2022-12-18T07:15:11;5.97;;;2.85;;
45806;SDS011;31507;51.494;7.518;2022-12-18T07:17:37;8.77;;;3.75;;
45806;SDS011;31507;51.494;7.518;2022-12-18T07:20:03;5.10;;;2.90;;
45806;SDS011;31507;51.494;7.518;2022-12-18T07:22:29;4.85;;;2.90;;
45806;SDS011;31507;51.494;7.518;2022-12-18T07:24:55;6.75;;;3.20;;
45806;SDS011;31507;51.494;7.518;2022-12-18T07:27:21;6.43;;;2.97;;
45806;SDS011;31507;51.494;7.518;2022-12-18T07:29:47;4.65;;;2.80;;
45806;SDS011;31507;51.494;7.518;2022-12-18T07:32:12;5.45;;;3.00;;
45806;SDS011;31507;51.494;7.518;2022-12-18T07:34:38;4.60;;;2.75;;
45806;SDS011;31507;51.494;7.518;2022-12-18T07:37:04;5.05;;;2.75;;
45806;SDS011;31507;51.494;7.518;2022-12-18T07:39:29;4.55;;;3.05;;
45806;SDS011;31507;51.494;7.518;2022-12-18T07:41:55;4.32;;;2.75;;
45806;SDS011;31507;51.494;7.518;2022-12-18T07:44:39;4.30;;;3.03;;
45806;SDS011;31507;51.494;7.518;2022-12-18T07:47:05;5.10;;;3.05;;
45806;SDS011;31507;51.494;7.518;2022-12-18T07:49:31;3.55;;;2.72;;
45806;SDS011;31507;51.494;7.518;2022-12-18T07:51:56;5.38;;;3.13;;
45806;SDS011;31507;51.494;7.518;2022-12-18T07:54:23;4.72;;;2.70;;
45806;SDS011;31507;51.494;7.518;2022-12-18T07:56:50;5.25;;;3.15;;
45806;SDS011;31507;51.494;7.518;2022-12-18T07:59:16;6.75;;;2.60;;
45806;SDS011;31507;51.494;7.518;2022-12-18T08:01:41;5.13;;;3.13;;
45806;SDS011;31507;51.494;7.518;2022-12-18T08:04:07;6.07;;;3.20;;
45806;SDS011;31507;51.494;7.518;2022-12-18T08:06:33;4.88;;;2.58;;
45806;SDS011;31507;51.494;7.518;2022-12-18T08:08:58;5.30;;;2.70;;
45806;SDS011;31507;51.494;7.518;2022-12-18T08:11:25;4.63;;;2.80;;
45806;SDS011;31507;51.494;7.518;2022-12-18T08:13:52;3.70;;;2.40;;
45806;SDS011;31507;51.494;7.518;2022-12-18T08:16:18;5.28;;;2.70;;
45806;SDS011;31507;51.494;7.518;2022-12-18T08:18:44;6.68;;;2.90;;
45806;SDS011;31507;51.494;7.518;2022-12-18T08:21:14;4.75;;;3.20;;
45806;SDS011;31507;51.494;7.518;2022-12-18T08:23:41;8.43;;;2.85;;
45806;SDS011;31507;51.494;7.518;2022-12-18T08:26:08;3.08;;;2.42;;
45806;SDS011;31507;51.494;7.518;2022-12-18T08:28:34;4.22;;;2.47;;
45806;SDS011;31507;51.494;7.518;2022-12-18T08:31:00;7.38;;;3.10;;
45806;SDS011;31507;51.494;7.518;2022-12-18T08:33:26;4.35;;;2.60;;
45806;SDS011;31507;51.494;7.518;2022-12-18T08:35:52;5.72;;;2.90;;
45806;SDS011;31507;51.494;7.518;2022-12-18T08:38:18;5.70;;;3.00;;
45806;SDS011;31507;51.494;7.518;2022-12-18T08:40:43;4.70;;;2.65;;
45806;SDS011;31507;51.494;7.518;2022-12-18T08:43:09;7.65;;;2.90;;
45806;SDS011;31507;51.494;7.518;2022-12-18T08:45:54;3.17;;;2.50;;
45806;SDS011;31507;51.494;7.518;2022-12-18T08:48:20;4.60;;;2.83;;
45806;SDS011;31507;51.494;7.518;2022-12-18T08:50:55;9.52;;;2.80;;
45806;SDS011;31507;51.494;7.518;2022-12-18T08:53:25;6.63;;;3.78;;
45806;SDS011;31507;51.494;7.518;2022-12-18T08:55:52;4.70;;;2.83;;
45806;SDS011;31507;51.494;7.518;2022-12-18T08:58:18;3.38;;;2.45;;
45806;SDS011;31507;51.494;7.518;2022-12-18T09:00:44;4.70;;;2.55;;
45806;SDS011;31507;51.494;7.518;2022-12-18T09:03:13;3.80;;;2.58;;
45806;SDS011;31507;51.494;7.518;2022-12-18T09:05:39;5.35;;;2.70;;
45806;SDS011;31507;51.494;7.518;2022-12-18T09:08:05;4.25;;;2.50;;
45806;SDS011;31507;51.494;7.518;2022-12-18T09:10:31;3.50;;;2.30;;
45806;SDS011;31507;51.494;7.518;2022-12-18T09:12:57;4.70;;;2.95;;
45806;SDS011;31507;51.494;7.518;2022-12-18T09:15:22;3.28;;;2.45;;
45806;SDS011;31507;51.494;7.518;2022-12-18T09:17:48;4.60;;;2.80;;
45806;SDS011;31507;51.494;7.518;2022-12-18T09:20:15;4.85;;;3.00;;
45806;SDS011;31507;51.494;7.518;2022-12-18T09:22:41;4.68;;;2.50;;
45806;SDS011;31507;51.494;7.518;2022-12-18T09:25:07;4.53;;;2.53;;
45806;SDS011;31507;51.494;7.518;2022-12-18T09:27:33;4.88;;;2.20;;
45806;SDS011;31507;51.494;7.518;2022-12-18T09:29:59;4.18;;;2.65;;
45806;SDS011;31507;51.494;7.518;2022-12-18T09:32:25;4.28;;;2.40;;
45806;SDS011;31507;51.494;7.518;2022-12-18T09:34:50;4.97;;;2.20;;
45806;SDS011;31507;51.494;7.518;2022-12-18T09:37:16;4.72;;;2.58;;
45806;SDS011;31507;51.494;7.518;2022-12-18T09:39:42;5.95;;;2.88;;
45806;SDS011;31507;51.494;7.518;2022-12-18T09:42:09;4.50;;;2.45;;
45806;SDS011;31507;51.494;7.518;2022-12-18T09:44:48;3.72;;;2.30;;
45806;SDS011;31507;51.494;7.518;2022-12-18T09:47:28;4.63;;;2.70;;
45806;SDS011;31507;51.494;7.518;2022-12-18T09:50:15;4.30;;;2.15;;
45806;SDS011;31507;51.494;7.518;2022-12-18T09:52:47;5.20;;;2.90;;
45806;SDS011;31507;51.494;7.518;2022-12-18T09:55:23;4.78;;;2.40;;
45806;SDS011;31507;51.494;7.518;2022-12-18T10:01:14;3.42;;;2.08;;
45806;SDS011;31507;51.494;7.518;2022-12-18T10:03:44;4.38;;;2.35;;
45806;SDS011;31507;51.494;7.518;2022-12-18T10:06:27;3.80;;;2.28;;
45806;SDS011;31507;51.494;7.518;2022-12-18T10:09:47;8.90;;;2.50;;
45806;SDS011;31507;51.494;7.518;2022-12-18T10:12:12;19.95;;;13.15;;
45806;SDS011;31507;51.494;7.518;2022-12-18T10:14:57;27.17;;;19.02;;
45806;SDS011;31507;51.494;7.518;2022-12-18T10:23:25;3.83;;;2.20;;
45806;SDS011;31507;51.494;7.518;2022-12-18T10:26:04;3.78;;;2.15;;
45806;SDS011;31507;51.494;7.518;2022-12-18T10:28:38;4.72;;;2.40;;
45806;SDS011;31507;51.494;7.518;2022-12-18T10:31:05;5.18;;;2.35;;
45806;SDS011;31507;51.494;7.518;2022-12-18T10:33:33;4.93;;;2.25;;
45806;SDS011;31507;51.494;7.518;2022-12-18T10:35:59;6.43;;;2.22;;
45806;SDS011;31507;51.494;7.518;2022-12-18T10:38:29;4.18;;;2.28;;
45806;SDS011;31507;51.494;7.518;2022-12-18T10:43:28;4.95;;;3.60;;
45806;SDS011;31507;51.494;7.518;2022-12-18T10:46:03;7.50;;;5.60;;
45806;SDS011;31507;51.494;7.518;2022-12-18T10:48:30;3.85;;;2.53;;
45806;SDS011;31507;51.494;7.518;2022-12-18T10:50:58;4.57;;;2.58;;
45806;SDS011;31507;51.494;7.518;2022-12-18T10:53:25;5.78;;;2.28;;
45806;SDS011;31507;51.494;7.518;2022-12-18T10:55:53;4.45;;;2.10;;
45806;SDS011;31507;51.494;7.518;2022-12-18T11:01:01;2.88;;;1.73;;
45806;SDS011;31507;51.494;7.518;2022-12-18T11:06:16;4.57;;;2.33;;
45806;SDS011;31507;51.494;7.518;2022-12-18T11:08:57;11.43;;;2.72;;
45806;SDS011;31507;51.494;7.518;2022-12-18T11:11:24;5.13;;;2.67;;
45806;SDS011;31507;51.494;7.518;2022-12-18T11:13:58;4.35;;;2.42;;
45806;SDS011;31507;51.494;7.518;2022-12-18T11:16:29;2.95;;;1.70;;
45806;SDS011;31507;51.494;7.518;2022-12-18T11:21:52;3.85;;;2.30;;
45806;SDS011;31507;51.494;7.518;2022-12-18T11:24:27;3.35;;;2.25;;
45806;SDS011;31507;51.494;7.518;2022-12-18T11:27:04;5.25;;;2.03;;
45806;SDS011;31507;51.494;7.518;2022-12-18T11:29:32;4.95;;;2.97;;
45806;SDS011;31507;51.494;7.518;2022-12-18T11:34:46;3.65;;;3.05;;
45806;SDS011;31507;51.494;7.518;2022-12-18T11:37:16;9.05;;;6.47;;
45806;SDS011;31507;51.494;7.518;2022-12-18T11:39:53;17.00;;;8.35;;
45806;SDS011;31507;51.494;7.518;2022-12-18T11:50:43;6.07;;;2.72;;
45806;SDS011;31507;51.494;7.518;2022-12-18T11:53:21;3.67;;;2.38;;
45806;SDS011;31507;51.494;7.518;2022-12-18T12:16:51;5.25;;;1.98;;
45806;SDS011;31507;51.494;7.518;2022-12-18T12:25:25;7.15;;;2.50;;
45806;SDS011;31507;51.494;7.518;2022-12-18T12:33:22;6.55;;;2.42;;
45806;SDS011;31507;51.494;7.518;2022-12-18T12:38:41;3.80;;;2.40;;
45806;SDS011;31507;51.494;7.518;2022-12-18T12:41:13;6.70;;;2.38;;
45806;SDS011;31507;51.494;7.518;2022-12-18T12:44:04;6.97;;;2.78;;
45806;SDS011;31507;51.494;7.518;2022-12-18T12:46:34;4.18;;;2.45;;
45806;SDS011;31507;51.494;7.518;2022-12-18T12:49:14;3.70;;;2.40;;
45806;SDS011;31507;51.494;7.518;2022-12-18T12:51:44;4.82;;;2.85;;
45806;SDS011;31507;51.494;7.518;2022-12-18T12:54:21;5.72;;;3.03;;
45806;SDS011;31507;51.494;7.518;2022-12-18T13:02:18;4.15;;;2.60;;
45806;SDS011;31507;51.494;7.518;2022-12-18T13:04:47;6.05;;;2.60;;
45806;SDS011;31507;51.494;7.518;2022-12-18T13:07:37;6.55;;;3.55;;
45806;SDS011;31507;51.494;7.518;2022-12-18T13:12:37;4.97;;;2.53;;
45806;SDS011;31507;51.494;7.518;2022-12-18T13:18:05;5.70;;;3.13;;
45806;SDS011;31507;51.494;7.518;2022-12-18T13:20:51;6.72;;;2.53;;
45806;SDS011;31507;51.494;7.518;2022-12-18T13:23:47;7.95;;;3.97;;
45806;SDS011;31507;51.494;7.518;2022-12-18T13:31:13;13.60;;;3.28;;
45806;SDS011;31507;51.494;7.518;2022-12-18T13:33:40;6.65;;;2.90;;
45806;SDS011;31507;51.494;7.518;2022-12-18T13:36:25;6.88;;;3.20;;
45806;SDS011;31507;51.494;7.518;2022-12-18T13:39:09;11.07;;;4.10;;
45806;SDS011;31507;51.494;7.518;2022-12-18T13:41:38;10.85;;;4.18;;
45806;SDS011;31507;51.494;7.518;2022-12-18T13:46:49;7.65;;;3.40;;
45806;SDS011;31507;51.494;7.518;2022-12-18T13:52:17;8.13;;;4.20;;
45806;SDS011;31507;51.494;7.518;2022-12-18T13:54:53;12.48;;;4.78;;
45806;SDS011;31507;51.494;7.518;2022-12-18T13:59:54;19.30;;;10.85;;
45806;SDS011;31507;51.494;7.518;2022-12-18T14:02:22;12.77;;;8.20;;
45806;SDS011;31507;51.494;7.518;2022-12-18T14:04:50;16.38;;;10.02;;
45806;SDS011;31507;51.494;7.518;2022-12-18T14:07:17;16.25;;;7.97;;
45806;SDS011;31507;51.494;7.518;2022-12-18T14:09:46;16.70;;;8.27;;
45806;SDS011;31507;51.494;7.518;2022-12-18T14:12:16;11.68;;;6.85;;
45806;SDS011;31507;51.494;7.518;2022-12-18T14:15:01;8.93;;;5.20;;
45806;SDS011;31507;51.494;7.518;2022-12-18T14:17:28;10.88;;;4.63;;
45806;SDS011;31507;51.494;7.518;2022-12-18T14:19:56;7.65;;;4.50;;
45806;SDS011;31507;51.494;7.518;2022-12-18T14:22:25;10.63;;;4.70;;
45806;SDS011;31507;51.494;7.518;2022-12-18T14:27:37;8.67;;;5.13;;
45806;SDS011;31507;51.494;7.518;2022-12-18T14:33:02;10.02;;;5.32;;
45806;SDS011;31507;51.494;7.518;2022-12-18T14:35:27;10.10;;;5.13;;
45806;SDS011;31507;51.494;7.518;2022-12-18T14:37:53;11.35;;;6.38;;
45806;SDS011;31507;51.494;7.518;2022-12-18T14:40:32;13.80;;;7.78;;
45806;SDS011;31507;51.494;7.518;2022-12-18T14:42:57;15.05;;;8.38;;
45806;SDS011;31507;51.494;7.518;2022-12-18T14:45:42;13.35;;;8.65;;
45806;SDS011;31507;51.494;7.518;2022-12-18T14:53:49;15.00;;;5.88;;
45806;SDS011;31507;51.494;7.518;2022-12-18T14:58:54;13.32;;;5.88;;
45806;SDS011;31507;51.494;7.518;2022-12-18T15:01:23;14.48;;;6.18;;
45806;SDS011;31507;51.494;7.518;2022-12-18T15:03:57;12.40;;;6.28;;
45806;SDS011;31507;51.494;7.518;2022-12-18T15:06:25;13.20;;;5.30;;
45806;SDS011;31507;51.494;7.518;2022-12-18T15:08:57;11.30;;;5.30;;
45806;SDS011;31507;51.494;7.518;2022-12-18T15:11:28;9.55;;;5.57;;
45806;SDS011;31507;51.494;7.518;2022-12-18T15:13:54;9.70;;;5.28;;
45806;SDS011;31507;51.494;7.518;2022-12-18T15:16:20;9.50;;;5.50;;
45806;SDS011;31507;51.494;7.518;2022-12-18T15:18:45;12.18;;;5.40;;
45806;SDS011;31507;51.494;7.518;2022-12-18T15:21:16;16.13;;;5.97;;
45806;SDS011;31507;51.494;7.518;2022-12-18T15:26:10;12.82;;;6.40;;
45806;SDS011;31507;51.494;7.518;2022-12-18T15:28:45;12.57;;;6.55;;
45806;SDS011;31507;51.494;7.518;2022-12-18T15:33:42;11.15;;;6.57;;
45806;SDS011;31507;51.494;7.518;2022-12-18T15:36:28;22.25;;;6.65;;
45806;SDS011;31507;51.494;7.518;2022-12-18T15:38:55;16.20;;;6.85;;
45806;SDS011;31507;51.494;7.518;2022-12-18T15:41:22;12.70;;;7.40;;
45806;SDS011;31507;51.494;7.518;2022-12-18T15:43:48;13.43;;;7.35;;
45806;SDS011;31507;51.494;7.518;2022-12-18T15:46:16;13.48;;;6.30;;
45806;SDS011;31507;51.494;7.518;2022-12-18T15:48:49;12.95;;;7.80;;
45806;SDS011;31507;51.494;7.518;2022-12-18T15:53:43;15.77;;;8.63;;
45806;SDS011;31507;51.494;7.518;2022-12-18T15:56:10;12.93;;;6.88;;
45806;SDS011;31507;51.494;7.518;2022-12-18T15:58:55;13.38;;;7.18;;
45806;SDS011;31507;51.494;7.518;2022-12-18T16:01:22;14.23;;;7.00;;
45806;SDS011;31507;51.494;7.518;2022-12-18T16:03:50;20.20;;;8.07;;
45806;SDS011;31507;51.494;7.518;2022-12-18T16:06:15;12.82;;;6.45;;
45806;SDS011;31507;51.494;7.518;2022-12-18T16:08:41;16.90;;;8.63;;
45806;SDS011;31507;51.494;7.518;2022-12-18T16:11:20;17.83;;;8.70;;
45806;SDS011;31507;51.494;7.518;2022-12-18T16:14:21;14.23;;;8.27;;
45806;SDS011;31507;51.494;7.518;2022-12-18T16:16:52;23.25;;;8.70;;
45806;SDS011;31507;51.494;7.518;2022-12-18T16:19:19;13.30;;;8.05;;
45806;SDS011;31507;51.494;7.518;2022-12-18T16:21:46;15.63;;;7.90;;
45806;SDS011;31507;51.494;7.518;2022-12-18T16:24:20;14.32;;;8.88;;
45806;SDS011;31507;51.494;7.518;2022-12-18T16:26:47;17.02;;;8.60;;
45806;SDS011;31507;51.494;7.518;2022-12-18T16:29:13;17.77;;;9.25;;
45806;SDS011;31507;51.494;7.518;2022-12-18T16:31:39;16.95;;;8.73;;
45806;SDS011;31507;51.494;7.518;2022-12-18T16:34:23;19.60;;;9.45;;
45806;SDS011;31507;51.494;7.518;2022-12-18T16:36:53;21.83;;;9.52;;
45806;SDS011;31507;51.494;7.518;2022-12-18T16:39:23;18.52;;;9.43;;
45806;SDS011;31507;51.494;7.518;2022-12-18T16:41:49;16.63;;;9.48;;
45806;SDS011;31507;51.494;7.518;2022-12-18T16:44:15;20.63;;;10.15;;
45806;SDS011;31507;51.494;7.518;2022-12-18T16:46:41;18.25;;;10.20;;
45806;SDS011;31507;51.494;7.518;2022-12-18T16:49:10;17.23;;;9.50;;
45806;SDS011;31507;51.494;7.518;2022-12-18T16:51:36;17.40;;;10.13;;
45806;SDS011;31507;51.494;7.518;2022-12-18T16:54:02;18.95;;;10.90;;
45806;SDS011;31507;51.494;7.518;2022-12-18T16:56:27;17.67;;;10.88;;
45806;SDS011;31507;51.494;7.518;2022-12-18T16:58:53;19.10;;;10.85;;
45806;SDS011;31507;51.494;7.518;2022-12-18T17:01:20;22.05;;;10.50;;
45806;SDS011;31507;51.494;7.518;2022-12-18T17:03:50;18.67;;;11.43;;
45806;SDS011;31507;51.494;7.518;2022-12-18T17:06:17;22.80;;;12.50;;
45806;SDS011;31507;51.494;7.518;2022-12-18T17:08:43;18.88;;;10.82;;
45806;SDS011;31507;51.494;7.518;2022-12-18T17:11:09;21.02;;;11.32;;
45806;SDS011;31507;51.494;7.518;2022-12-18T17:13:35;40.03;;;19.52;;
45806;SDS011;31507;51.494;7.518;2022-12-18T17:16:01;56.97;;;27.80;;
45806;SDS011;31507;51.494;7.518;2022-12-18T17:18:28;18.67;;;11.65;;
45806;SDS011;31507;51.494;7.518;2022-12-18T17:20:57;30.50;;;12.38;;
45806;SDS011;31507;51.494;7.518;2022-12-18T17:23:25;21.02;;;12.85;;
45806;SDS011;31507;51.494;7.518;2022-12-18T17:25:58;20.38;;;12.45;;
45806;SDS011;31507;51.494;7.518;2022-12-18T17:28:25;22.40;;;13.23;;
45806;SDS011;31507;51.494;7.518;2022-12-18T17:30:52;20.95;;;12.43;;
45806;SDS011;31507;51.494;7.518;2022-12-18T17:33:18;21.20;;;13.05;;